Time;durP1;ratioP1;P1;durP2;ratioP2;P2;SDS_P1;SDS_P2;PMS_P1;PMS_P2;Temp;Humidity;BMP_temperature;BMP_pressure;BME280_temperature;BME280_humidity;BME280_pressure;Samples;Min_cycle;Max_cycle;Signal;HPM_P1;HPM_P2
2023/08/10 00:01:33;;;;;;;10.30;2.97;;;13.60;99.90;;;;;;5050097;28;20037;-70
2023/08/10 00:03:59;;;;;;;4.55;2.20;;;13.60;99.90;;;;;;5049962;28;20078;-71
2023/08/10 00:06:25;;;;;;;7.10;2.40;;;13.60;99.90;;;;;;5049348;28;20089;-69
2023/08/10 00:08:50;;;;;;;11.05;2.30;;;13.40;99.90;;;;;;5040020;28;20049;-72
2023/08/10 00:11:16;;;;;;;7.88;2.78;;;13.50;99.90;;;;;;5050134;28;20406;-70
2023/08/10 00:13:43;;;;;;;6.53;2.83;;;13.40;99.90;;;;;;5049607;28;20052;-69
2023/08/10 00:16:09;;;;;;;10.32;2.33;;;13.30;99.90;;;;;;5041321;28;20484;-70
2023/08/10 00:18:34;;;;;;;7.60;2.47;;;13.30;99.90;;;;;;5040991;28;20049;-71
2023/08/10 00:21:01;;;;;;;7.07;2.53;;;13.30;99.90;;;;;;5049711;28;20045;-69
2023/08/10 00:23:27;;;;;;;9.68;2.40;;;13.30;99.90;;;;;;5049880;28;20136;-72
2023/08/10 00:25:52;;;;;;;5.57;2.55;;;13.20;99.90;;;;;;5040997;28;20120;-71
2023/08/10 00:28:18;;;;;;;6.80;2.38;;;13.20;99.90;;;;;;5049860;28;20091;-69
2023/08/10 00:30:44;;;;;;;6.65;2.65;;;13.10;99.90;;;;;;5049748;28;20049;-70
2023/08/10 00:33:09;;;;;;;7.75;2.50;;;13.10;99.90;;;;;;5048407;28;20040;-72
2023/08/10 00:35:38;;;;;;;10.00;2.47;;;13.00;99.90;;;;;;5048947;28;20120;-71
2023/08/10 00:38:04;;;;;;;8.20;2.40;;;13.10;99.90;;;;;;5042127;28;20567;-72
2023/08/10 00:40:30;;;;;;;8.57;2.65;;;13.10;99.90;;;;;;5049598;28;20532;-69
2023/08/10 00:42:58;;;;;;;6.13;2.58;;;13.10;99.90;;;;;;5040237;28;20045;-70
2023/08/10 00:45:24;;;;;;;4.85;2.50;;;13.00;99.90;;;;;;5049315;28;20053;-68
2023/08/10 00:47:52;;;;;;;5.35;2.53;;;13.10;99.90;;;;;;5040512;28;20492;-69
2023/08/10 00:50:18;;;;;;;10.43;2.95;;;13.00;99.90;;;;;;5048229;28;20056;-69
2023/08/10 00:52:44;;;;;;;8.00;2.50;;;13.00;99.90;;;;;;5049415;28;20422;-68
2023/08/10 00:55:10;;;;;;;10.40;2.47;;;12.50;99.90;;;;;;5049366;28;20033;-69
2023/08/10 00:57:36;;;;;;;9.25;2.58;;;13.10;99.90;;;;;;5043034;28;20463;-70
2023/08/10 01:00:05;;;;;;;5.07;2.45;;;12.90;99.90;;;;;;5049073;28;20051;-69
2023/08/10 01:02:31;;;;;;;8.85;2.60;;;12.90;99.90;;;;;;5055931;28;20041;-69
2023/08/10 01:04:57;;;;;;;7.13;2.40;;;12.90;99.90;;;;;;5056266;28;20052;-69
2023/08/10 01:07:26;;;;;;;6.18;1.90;;;12.90;99.90;;;;;;5052908;28;20118;-69
2023/08/10 01:10:14;;;;;;;6.55;2.30;;;12.90;99.90;;;;;;5049520;28;20088;-69
2023/08/10 01:12:40;;;;;;;6.93;2.53;;;12.90;99.90;;;;;;5048851;28;20088;-69
2023/08/10 01:15:29;;;;;;;5.47;2.17;;;12.80;99.90;;;;;;5055573;28;20079;-69
2023/08/10 01:17:57;;;;;;;5.55;2.28;;;12.80;99.90;;;;;;5049711;28;20041;-69
2023/08/10 01:20:25;;;;;;;8.32;2.50;;;12.70;99.90;;;;;;5029392;28;20129;-69
2023/08/10 01:23:00;;;;;;;4.53;2.20;;;12.80;99.90;;;;;;5055562;28;20051;-69
2023/08/10 01:25:27;;;;;;;4.88;2.25;;;12.70;99.90;;;;;;5055630;28;20049;-69
2023/08/10 01:27:54;;;;;;;4.32;2.20;;;12.80;99.90;;;;;;5055675;28;20048;-69
2023/08/10 01:30:20;;;;;;;6.53;2.13;;;12.80;99.90;;;;;;5047000;28;20504;-69
2023/08/10 01:32:46;;;;;;;6.55;2.33;;;12.70;99.90;;;;;;5056049;28;20041;-69
2023/08/10 01:35:12;;;;;;;6.80;2.42;;;12.80;99.90;;;;;;5055855;28;20037;-70
2023/08/10 01:37:38;;;;;;;4.78;2.30;;;12.60;99.90;;;;;;5054254;28;20522;-69
2023/08/10 01:40:07;;;;;;;7.03;2.60;;;12.80;99.90;;;;;;5050766;28;20049;-68
2023/08/10 01:42:32;;;;;;;3.58;2.42;;;12.60;99.90;;;;;;5051681;28;20068;-69
2023/08/10 01:44:58;;;;;;;5.32;2.40;;;12.60;99.90;;;;;;5054738;28;20488;-69
2023/08/10 01:47:39;;;;;;;9.00;3.08;;;12.60;99.90;;;;;;5055548;28;20047;-69
2023/08/10 01:50:08;;;;;;;8.27;2.65;;;12.50;99.90;;;;;;5055561;28;20041;-69
2023/08/10 01:52:42;;;;;;;8.18;2.65;;;12.50;99.90;;;;;;5054323;28;20052;-70
2023/08/10 01:55:09;;;;;;;9.02;2.60;;;12.40;99.90;;;;;;5055055;28;20512;-69
2023/08/10 01:57:36;;;;;;;5.15;2.38;;;12.30;99.90;;;;;;5055292;28;20044;-68
2023/08/10 02:00:02;;;;;;;7.65;2.58;;;12.40;99.90;;;;;;5046877;28;20052;-69
2023/08/10 02:02:28;;;;;;;5.50;2.60;;;12.20;99.90;;;;;;5046538;28;20468;-69
2023/08/10 02:04:54;;;;;;;7.50;2.65;;;12.20;99.90;;;;;;5054939;28;20504;-69
2023/08/10 02:07:20;;;;;;;10.00;2.80;;;12.10;99.90;;;;;;5044303;28;20033;-70
2023/08/10 02:09:45;;;;;;;5.28;2.03;;;12.20;99.90;;;;;;5048116;28;20106;-70
2023/08/10 02:12:11;;;;;;;7.20;2.00;;;12.10;99.90;;;;;;5043751;28;20493;-70
2023/08/10 02:14:36;;;;;;;7.05;2.55;;;12.10;99.90;;;;;;5046875;28;20056;-70
2023/08/10 02:17:03;;;;;;;3.78;2.10;;;12.10;99.90;;;;;;5046293;28;20064;-71
2023/08/10 02:19:28;;;;;;;10.15;2.70;;;12.10;99.90;;;;;;5050179;28;20036;-71
2023/08/10 02:21:54;;;;;;;4.88;2.30;;;12.00;99.90;;;;;;5048985;28;20144;-71
2023/08/10 02:24:20;;;;;;;5.88;2.10;;;12.00;99.90;;;;;;5041585;28;20099;-71
2023/08/10 02:26:46;;;;;;;8.95;2.15;;;12.20;99.90;;;;;;5047622;28;20053;-71
2023/08/10 02:29:11;;;;;;;5.40;2.17;;;11.90;99.90;;;;;;5047361;28;20041;-71
2023/08/10 02:31:37;;;;;;;8.55;2.85;;;11.90;99.90;;;;;;5051961;28;20041;-69
2023/08/10 02:34:03;;;;;;;8.52;2.25;;;11.80;99.90;;;;;;5043249;28;20594;-72
2023/08/10 02:36:29;;;;;;;4.70;2.08;;;11.80;99.90;;;;;;5051889;28;20438;-71
2023/08/10 02:38:54;;;;;;;4.30;2.20;;;11.80;99.90;;;;;;5042759;28;20044;-71
2023/08/10 02:41:20;;;;;;;7.35;2.58;;;11.80;99.90;;;;;;5047987;28;20056;-72
2023/08/10 02:43:46;;;;;;;12.70;2.75;;;11.80;99.90;;;;;;5042953;28;20053;-71
2023/08/10 02:46:11;;;;;;;3.90;1.90;;;11.80;99.90;;;;;;5043141;28;20041;-72
2023/08/10 02:48:37;;;;;;;7.25;2.42;;;11.80;99.90;;;;;;5051655;28;20037;-70
2023/08/10 02:51:03;;;;;;;4.32;2.10;;;11.80;99.90;;;;;;5051546;28;20121;-72
2023/08/10 02:53:28;;;;;;;4.57;2.22;;;11.80;99.90;;;;;;5051186;28;20052;-70
2023/08/10 02:55:54;;;;;;;5.30;2.28;;;11.80;99.90;;;;;;5040712;28;20487;-70
2023/08/10 02:58:21;;;;;;;6.50;2.40;;;12.20;99.90;;;;;;5044202;28;20048;-71
2023/08/10 03:00:47;;;;;;;5.47;2.30;;;11.90;99.90;;;;;;5051656;28;20053;-69
2023/08/10 03:03:12;;;;;;;5.65;2.22;;;11.90;99.90;;;;;;5048920;28;20041;-73
2023/08/10 03:05:38;;;;;;;5.30;2.05;;;12.00;99.90;;;;;;5039392;28;20168;-70
2023/08/10 03:08:05;;;;;;;4.65;1.52;;;12.00;99.90;;;;;;5039643;28;20132;-70
2023/08/10 03:10:31;;;;;;;4.18;2.38;;;12.00;99.90;;;;;;5051292;28;20048;-69
2023/08/10 03:12:56;;;;;;;6.43;2.35;;;12.00;99.90;;;;;;5042427;28;20076;-72
2023/08/10 03:15:22;;;;;;;8.05;2.53;;;12.10;99.90;;;;;;5046317;28;20064;-70
2023/08/10 03:17:48;;;;;;;6.68;1.98;;;12.10;99.90;;;;;;5044874;28;20064;-70
2023/08/10 03:20:16;;;;;;;7.03;2.25;;;12.10;99.90;;;;;;5051131;28;20052;-68
2023/08/10 03:22:45;;;;;;;12.85;2.60;;;12.20;99.90;;;;;;5046478;28;20056;-72
2023/08/10 03:25:11;;;;;;;7.00;2.67;;;12.20;99.90;;;;;;5044057;28;20049;-71
2023/08/10 03:27:36;;;;;;;6.97;2.65;;;12.30;99.90;;;;;;5042016;28;20045;-72
2023/08/10 03:30:03;;;;;;;7.50;3.00;;;12.60;99.90;;;;;;5049658;28;20049;-71
2023/08/10 03:32:29;;;;;;;7.80;2.70;;;12.30;99.90;;;;;;5041343;28;20119;-71
2023/08/10 03:34:55;;;;;;;9.07;2.75;;;12.60;99.90;;;;;;5042143;28;20041;-70
2023/08/10 03:37:20;;;;;;;4.15;2.15;;;12.40;99.90;;;;;;5042181;28;20040;-71
2023/08/10 03:39:46;;;;;;;7.80;2.45;;;12.40;99.90;;;;;;5050505;28;20392;-73
2023/08/10 03:42:12;;;;;;;5.85;2.42;;;12.40;99.90;;;;;;5044312;28;20045;-71
2023/08/10 03:44:37;;;;;;;5.10;2.60;;;12.40;99.90;;;;;;5042554;28;20095;-71
2023/08/10 03:47:04;;;;;;;6.63;2.70;;;12.50;99.90;;;;;;5038904;28;20571;-73
2023/08/10 03:49:30;;;;;;;7.97;2.90;;;12.50;99.90;;;;;;5044309;28;20049;-70
2023/08/10 03:51:55;;;;;;;7.10;2.53;;;12.70;99.90;;;;;;5050297;28;20052;-71
2023/08/10 03:54:21;;;;;;;7.43;2.70;;;12.60;99.90;;;;;;5050713;28;20070;-72
2023/08/10 03:56:47;;;;;;;8.93;2.75;;;12.60;99.90;;;;;;5050122;28;20095;-70
2023/08/10 03:59:13;;;;;;;5.30;2.35;;;12.60;99.90;;;;;;5041242;28;21740;-72
2023/08/10 04:01:39;;;;;;;7.05;2.50;;;12.60;99.90;;;;;;5042172;28;20144;-69
2023/08/10 04:04:05;;;;;;;9.65;2.80;;;12.60;99.90;;;;;;5049917;28;20530;-72
2023/08/10 04:06:31;;;;;;;10.43;2.95;;;12.70;99.90;;;;;;5049130;28;20052;-69
2023/08/10 04:08:57;;;;;;;5.32;2.85;;;12.70;99.90;;;;;;5040820;28;20046;-72
2023/08/10 04:11:22;;;;;;;6.10;2.63;;;12.70;99.90;;;;;;5044737;28;20037;-72
2023/08/10 04:13:48;;;;;;;4.90;2.42;;;12.70;99.90;;;;;;5038724;28;20037;-71
2023/08/10 04:16:14;;;;;;;8.73;2.72;;;12.70;99.90;;;;;;5048003;28;20079;-73
2023/08/10 04:18:40;;;;;;;3.33;2.15;;;12.80;99.90;;;;;;5038007;28;20091;-69
2023/08/10 04:21:06;;;;;;;8.60;2.40;;;12.80;99.90;;;;;;5045530;28;20579;-70
2023/08/10 04:23:32;;;;;;;5.85;2.83;;;12.80;99.90;;;;;;5048352;28;20439;-70
2023/08/10 04:25:57;;;;;;;7.72;2.42;;;12.80;99.90;;;;;;5047759;28;20049;-70
2023/08/10 04:28:23;;;;;;;5.28;1.98;;;12.80;99.90;;;;;;5045192;28;20044;-71
2023/08/10 04:30:49;;;;;;;5.50;2.20;;;12.80;99.90;;;;;;5048373;28;20059;-72
2023/08/10 04:33:15;;;;;;;8.98;2.72;;;12.80;99.90;;;;;;5050023;28;20041;-71
2023/08/10 04:35:41;;;;;;;7.45;3.05;;;12.90;99.90;;;;;;5049430;28;20513;-69
2023/08/10 04:38:07;;;;;;;9.48;2.70;;;12.90;99.90;;;;;;5048249;28;20778;-69
2023/08/10 04:40:32;;;;;;;5.65;3.00;;;12.90;99.90;;;;;;5040976;28;20060;-69
2023/08/10 04:42:59;;;;;;;7.28;2.85;;;12.90;99.90;;;;;;5045969;28;20866;-69
2023/08/10 04:45:25;;;;;;;9.77;2.90;;;12.90;99.90;;;;;;5044164;28;20044;-69
2023/08/10 04:47:51;;;;;;;4.55;2.35;;;13.00;99.90;;;;;;5041187;28;20721;-69
2023/08/10 04:50:17;;;;;;;5.80;2.15;;;13.00;99.90;;;;;;5048775;28;20507;-69
2023/08/10 04:52:43;;;;;;;6.03;2.30;;;13.00;99.90;;;;;;5040082;28;20080;-69
2023/08/10 04:55:10;;;;;;;6.07;2.30;;;13.00;99.90;;;;;;5049452;28;20033;-69
2023/08/10 04:57:37;;;;;;;9.70;3.20;;;13.00;99.90;;;;;;5042810;28;20038;-69
2023/08/10 05:00:09;;;;;;;8.45;3.08;;;13.10;99.90;;;;;;5045678;28;20114;-71
2023/08/10 05:02:36;;;;;;;9.85;3.17;;;13.10;99.90;;;;;;5040590;28;20064;-72
2023/08/10 05:05:03;;;;;;;7.30;2.80;;;13.20;99.90;;;;;;5041199;28;20045;-71
2023/08/10 05:07:28;;;;;;;11.10;2.53;;;13.20;99.90;;;;;;5047624;28;20130;-71
2023/08/10 05:09:55;;;;;;;7.57;2.97;;;13.20;99.90;;;;;;5041282;28;20091;-69
2023/08/10 05:12:21;;;;;;;7.32;2.88;;;13.20;99.90;;;;;;5040202;28;20497;-71
2023/08/10 05:14:47;;;;;;;5.55;2.53;;;13.30;99.90;;;;;;5040366;28;20198;-71
2023/08/10 05:17:12;;;;;;;6.72;2.42;;;13.30;99.90;;;;;;5048215;28;20080;-70
2023/08/10 05:19:38;;;;;;;5.85;2.85;;;13.30;99.90;;;;;;5039804;28;20052;-69
2023/08/10 05:22:04;;;;;;;9.43;2.88;;;13.40;99.90;;;;;;5048945;28;20815;-71
2023/08/10 05:24:32;;;;;;;7.30;2.63;;;13.40;99.90;;;;;;5040561;28;20083;-70
2023/08/10 05:26:58;;;;;;;14.68;3.05;;;13.40;99.90;;;;;;5040705;28;20164;-70
2023/08/10 05:29:23;;;;;;;7.85;2.90;;;13.50;99.90;;;;;;5040396;28;20041;-70
2023/08/10 05:31:49;;;;;;;11.65;3.30;;;13.50;99.90;;;;;;5047633;28;20067;-69
2023/08/10 05:34:15;;;;;;;5.45;2.53;;;13.60;99.90;;;;;;5040735;28;20041;-70
2023/08/10 05:36:40;;;;;;;7.57;2.95;;;13.70;99.90;;;;;;5049205;28;20045;-69
2023/08/10 05:39:06;;;;;;;7.50;2.88;;;13.60;99.90;;;;;;5047632;28;20499;-70
2023/08/10 05:41:31;;;;;;;5.60;2.72;;;13.70;99.90;;;;;;5048859;28;20037;-70
2023/08/10 05:43:57;;;;;;;8.75;3.08;;;13.80;99.90;;;;;;5044681;28;20045;-71
2023/08/10 05:46:22;;;;;;;8.00;3.00;;;13.80;99.90;;;;;;5037014;28;20111;-70
2023/08/10 05:48:49;;;;;;;5.95;2.85;;;13.80;99.90;;;;;;5032393;28;20159;-70
2023/08/10 05:51:14;;;;;;;6.93;3.05;;;13.90;99.90;;;;;;5052886;28;20179;-69
2023/08/10 05:53:41;;;;;;;6.47;3.08;;;14.00;99.90;;;;;;5049246;28;20123;-70
2023/08/10 05:56:06;;;;;;;7.30;3.30;;;14.00;99.90;;;;;;5044042;28;20044;-71
2023/08/10 05:58:32;;;;;;;5.03;2.80;;;14.10;99.90;;;;;;5052752;28;20044;-69
2023/08/10 06:00:57;;;;;;;5.20;2.90;;;14.10;99.90;;;;;;5049970;28;20048;-71
2023/08/10 06:03:23;;;;;;;6.93;3.03;;;14.20;99.90;;;;;;5044790;28;20495;-71
2023/08/10 06:05:49;;;;;;;5.88;2.63;;;14.30;99.90;;;;;;5042208;28;20056;-69
2023/08/10 06:08:14;;;;;;;7.95;3.03;;;14.40;99.90;;;;;;5043986;28;20395;-69
2023/08/10 06:10:40;;;;;;;7.70;2.85;;;14.50;99.90;;;;;;5051637;28;20041;-69
2023/08/10 06:13:06;;;;;;;7.32;2.80;;;14.60;99.90;;;;;;5045580;28;20040;-69
2023/08/10 06:15:33;;;;;;;7.30;2.85;;;14.70;99.90;;;;;;5040203;28;20060;-68
2023/08/10 06:17:59;;;;;;;5.93;2.40;;;14.90;99.90;;;;;;5047276;28;20198;-71
2023/08/10 06:20:27;;;;;;;7.30;3.00;;;15.00;99.90;;;;;;5052078;28;20100;-70
2023/08/10 06:22:54;;;;;;;14.57;3.08;;;15.10;99.90;;;;;;5051996;28;20423;-68
2023/08/10 06:25:20;;;;;;;5.40;2.72;;;15.20;99.90;;;;;;5050839;28;20061;-70
2023/08/10 06:27:47;;;;;;;9.70;3.33;;;15.30;99.90;;;;;;5044232;28;20033;-69
2023/08/10 06:30:14;;;;;;;6.40;2.90;;;15.40;99.90;;;;;;5050361;28;20052;-69
2023/08/10 06:32:39;;;;;;;7.65;2.40;;;15.50;99.90;;;;;;5050146;28;20052;-68
2023/08/10 06:35:08;;;;;;;8.45;2.80;;;15.50;99.90;;;;;;5042118;28;20159;-71
2023/08/10 06:37:33;;;;;;;12.88;2.75;;;15.60;99.90;;;;;;5042710;28;20045;-69
2023/08/10 06:39:59;;;;;;;10.32;2.60;;;15.70;99.90;;;;;;5041801;28;20055;-69
2023/08/10 06:42:25;;;;;;;8.88;2.72;;;15.80;99.90;;;;;;5051629;28;20121;-69
2023/08/10 06:44:51;;;;;;;7.68;2.42;;;15.80;99.90;;;;;;5041697;28;20136;-69
2023/08/10 06:47:16;;;;;;;5.57;2.28;;;15.90;99.90;;;;;;5045815;28;20041;-69
2023/08/10 06:49:42;;;;;;;6.28;2.30;;;16.00;99.90;;;;;;5048693;28;20045;-69
2023/08/10 06:52:08;;;;;;;6.85;2.25;;;16.10;99.90;;;;;;5051411;28;20045;-69
2023/08/10 06:54:34;;;;;;;5.32;2.22;;;16.20;99.90;;;;;;5051636;28;20048;-69
2023/08/10 06:57:00;;;;;;;5.03;1.55;;;16.30;99.90;;;;;;5050930;28;20500;-69
2023/08/10 06:59:26;;;;;;;6.85;1.73;;;16.30;99.90;;;;;;5041275;28;20114;-71
2023/08/10 07:01:52;;;;;;;6.95;1.40;;;16.50;99.90;;;;;;5041673;28;20049;-70
2023/08/10 07:04:18;;;;;;;5.38;1.55;;;16.50;99.90;;;;;;5049790;28;20041;-71
2023/08/10 07:06:44;;;;;;;11.00;1.88;;;16.60;99.90;;;;;;5048892;28;20102;-68
2023/08/10 07:09:10;;;;;;;8.65;1.20;;;16.70;99.90;;;;;;5041678;28;20041;-70
2023/08/10 07:11:36;;;;;;;9.05;1.40;;;16.80;99.90;;;;;;5050098;28;20484;-70
2023/08/10 07:14:02;;;;;;;7.55;1.13;;;16.90;99.90;;;;;;5050986;28;20052;-69
2023/08/10 07:16:28;;;;;;;6.63;1.20;;;17.10;99.90;;;;;;5047095;28;20116;-67
2023/08/10 07:18:54;;;;;;;6.28;1.13;;;17.30;99.90;;;;;;5046194;28;20124;-70
2023/08/10 07:21:20;;;;;;;6.82;1.15;;;17.30;99.90;;;;;;5051147;28;20049;-70
2023/08/10 07:23:46;;;;;;;4.10;1.02;;;17.40;99.90;;;;;;5042315;28;20060;-69
2023/08/10 07:26:12;;;;;;;7.13;1.33;;;17.50;99.90;;;;;;5050999;28;20053;-70
2023/08/10 07:28:38;;;;;;;7.13;1.30;;;17.50;99.90;;;;;;5050868;28;20483;-69
2023/08/10 07:31:03;;;;;;;4.13;1.00;;;17.50;99.90;;;;;;5050086;28;20506;-69
2023/08/10 07:33:29;;;;;;;7.57;1.08;;;17.50;99.90;;;;;;5045872;28;20076;-70
2023/08/10 07:35:55;;;;;;;2.95;0.70;;;17.60;99.90;;;;;;5051113;28;20040;-69
2023/08/10 07:38:21;;;;;;;4.13;0.90;;;17.60;99.90;;;;;;5049564;28;20044;-69
2023/08/10 07:40:47;;;;;;;6.38;1.00;;;17.60;99.90;;;;;;5049563;28;20550;-70
2023/08/10 07:43:13;;;;;;;5.28;1.00;;;17.70;99.90;;;;;;5050787;28;20690;-70
2023/08/10 07:45:39;;;;;;;5.85;0.95;;;17.70;99.90;;;;;;5049915;28;20056;-70
2023/08/10 07:48:05;;;;;;;6.15;0.90;;;17.70;99.90;;;;;;5020600;28;20057;-70
2023/08/10 07:50:31;;;;;;;4.18;0.85;;;17.80;99.90;;;;;;5045778;28;20087;-69
2023/08/10 07:52:57;;;;;;;5.85;0.77;;;17.80;99.90;;;;;;5050537;28;20045;-69
2023/08/10 07:55:23;;;;;;;5.38;0.90;;;17.80;99.90;;;;;;5050694;28;20044;-69
2023/08/10 07:57:49;;;;;;;4.10;1.15;;;17.80;99.90;;;;;;5042752;28;20041;-68
2023/08/10 08:00:16;;;;;;;7.28;0.90;;;17.70;99.90;;;;;;5042394;28;20132;-71
2023/08/10 08:02:41;;;;;;;3.35;0.85;;;17.70;99.90;;;;;;5050823;28;20064;-70
2023/08/10 08:05:07;;;;;;;9.15;0.98;;;17.60;99.90;;;;;;5050626;28;20056;-73
2023/08/10 08:07:33;;;;;;;7.72;0.93;;;17.70;99.90;;;;;;5045309;28;20511;-70
2023/08/10 08:09:59;;;;;;;6.72;0.90;;;17.70;99.90;;;;;;5039037;28;20076;-69
2023/08/10 08:12:26;;;;;;;4.45;0.73;;;17.70;99.90;;;;;;5042580;28;20041;-69
2023/08/10 08:14:53;;;;;;;5.03;1.02;;;17.70;99.90;;;;;;5050902;28;20049;-71
2023/08/10 08:17:19;;;;;;;3.65;0.80;;;17.70;99.90;;;;;;5041318;28;20485;-70
2023/08/10 08:19:45;;;;;;;6.07;0.90;;;17.80;99.90;;;;;;5041685;28;20053;-69
2023/08/10 08:22:11;;;;;;;6.05;0.93;;;17.80;99.90;;;;;;5050694;28;20048;-73
2023/08/10 08:24:36;;;;;;;5.18;1.40;;;17.90;99.90;;;;;;5049139;28;20037;-69
2023/08/10 08:27:02;;;;;;;4.50;0.77;;;17.90;99.90;;;;;;5043727;28;20057;-68
2023/08/10 08:29:34;;;;;;;4.93;0.88;;;18.00;99.90;;;;;;5039934;28;20052;-70
2023/08/10 08:32:00;;;;;;;5.05;0.90;;;18.20;99.90;;;;;;5032322;28;20152;-71
2023/08/10 08:34:26;;;;;;;6.57;0.95;;;18.00;99.90;;;;;;5050740;28;20116;-71
2023/08/10 08:36:52;;;;;;;6.43;0.98;;;18.00;99.90;;;;;;5049273;28;20124;-70
2023/08/10 08:39:17;;;;;;;5.13;0.80;;;18.00;99.90;;;;;;5042086;28;20056;-69
2023/08/10 08:41:45;;;;;;;8.23;0.90;;;18.10;99.90;;;;;;5041947;28;20478;-71
2023/08/10 08:44:11;;;;;;;5.00;0.95;;;18.10;99.90;;;;;;5050238;28;20496;-68
2023/08/10 08:46:42;;;;;;;6.45;1.23;;;18.10;99.90;;;;;;5050217;28;20072;-69
2023/08/10 08:49:09;;;;;;;6.68;0.70;;;18.10;99.90;;;;;;5041440;28;20041;-70
2023/08/10 08:51:35;;;;;;;6.25;0.80;;;18.10;99.90;;;;;;5050095;28;20041;-69
2023/08/10 08:54:02;;;;;;;7.05;0.80;;;18.10;99.90;;;;;;5050192;28;20082;-69
2023/08/10 08:56:28;;;;;;;3.95;0.70;;;18.10;99.90;;;;;;5050367;28;20041;-69
2023/08/10 08:58:54;;;;;;;4.78;1.13;;;18.20;99.90;;;;;;5041294;28;20183;-69
2023/08/10 09:01:20;;;;;;;9.15;1.05;;;18.30;99.90;;;;;;5041497;28;20033;-69
2023/08/10 09:03:48;;;;;;;4.65;0.80;;;18.20;99.90;;;;;;5050202;28;20492;-69
2023/08/10 09:06:13;;;;;;;5.90;1.17;;;18.20;99.90;;;;;;5049756;28;20134;-69
2023/08/10 09:08:39;;;;;;;2.90;0.80;;;18.20;99.90;;;;;;5049942;28;20056;-69
2023/08/10 09:11:05;;;;;;;3.55;0.80;;;18.30;99.90;;;;;;5041810;28;20057;-69
2023/08/10 09:13:31;;;;;;;4.57;0.77;;;18.30;99.90;;;;;;5041436;28;20052;-70
2023/08/10 09:16:08;;;;;;;5.28;1.30;;;18.30;99.90;;;;;;5041678;28;20049;-70
2023/08/10 09:18:36;;;;;;;2.13;0.90;;;18.40;99.90;;;;;;5040915;28;20048;-70
2023/08/10 09:21:23;;;;;;;4.93;0.80;;;18.40;99.90;;;;;;5042608;28;20045;-70
2023/08/10 09:23:52;;;;;;;5.80;0.98;;;18.40;99.90;;;;;;5047600;28;20053;-69
2023/08/10 09:26:19;;;;;;;6.32;1.17;;;18.50;99.90;;;;;;5053888;28;20087;-68
2023/08/10 09:28:49;;;;;;;7.75;1.58;;;18.50;99.90;;;;;;5052775;28;20175;-68
2023/08/10 09:31:24;;;;;;;4.90;0.98;;;18.50;99.90;;;;;;5044917;28;20068;-69
2023/08/10 09:33:55;;;;;;;4.28;0.90;;;18.60;99.90;;;;;;5040938;28;20550;-69
2023/08/10 09:36:28;;;;;;;4.55;1.00;;;18.60;99.90;;;;;;5048884;28;20076;-71
2023/08/10 09:38:55;;;;;;;4.43;1.00;;;18.60;99.90;;;;;;5045894;28;20037;-70
2023/08/10 09:41:22;;;;;;;5.50;1.02;;;18.60;99.90;;;;;;5052987;28;20144;-69
2023/08/10 09:43:49;;;;;;;8.20;1.10;;;18.60;99.90;;;;;;5047172;28;20049;-69
2023/08/10 09:46:15;;;;;;;6.00;0.95;;;18.60;99.90;;;;;;5047764;28;20103;-70
2023/08/10 09:48:50;;;;;;;5.00;0.88;;;18.60;99.90;;;;;;5050971;28;20187;-69
2023/08/10 09:51:16;;;;;;;5.35;0.90;;;18.60;99.90;;;;;;5052076;28;20045;-70
2023/08/10 09:53:42;;;;;;;6.53;1.27;;;18.60;99.90;;;;;;5053162;28;20052;-69
2023/08/10 09:56:08;;;;;;;5.20;1.10;;;18.60;99.90;;;;;;5051894;28;20401;-69
2023/08/10 09:58:39;;;;;;;7.70;1.00;;;18.60;99.90;;;;;;5053506;28;20032;-69
2023/08/10 10:01:07;;;;;;;6.70;1.02;;;18.60;99.90;;;;;;5052265;28;20127;-69
2023/08/10 10:03:33;;;;;;;5.65;1.20;;;18.70;99.90;;;;;;5051937;28;20033;-70
2023/08/10 10:06:00;;;;;;;4.55;1.10;;;18.60;99.90;;;;;;5052024;28;20041;-70
2023/08/10 10:08:26;;;;;;;6.38;1.00;;;18.70;99.90;;;;;;5053221;28;20043;-70
2023/08/10 10:10:56;;;;;;;4.85;1.05;;;18.60;99.90;;;;;;5053127;28;20135;-70
2023/08/10 10:13:22;;;;;;;5.55;1.10;;;18.60;99.90;;;;;;5053170;28;20045;-70
2023/08/10 10:15:48;;;;;;;8.38;1.92;;;18.60;99.90;;;;;;5053297;28;20044;-70
2023/08/10 10:18:14;;;;;;;6.53;1.13;;;18.60;99.90;;;;;;5051442;28;20040;-70
2023/08/10 10:20:43;;;;;;;3.42;1.15;;;18.60;99.90;;;;;;5048715;28;20085;-69
2023/08/10 10:23:17;;;;;;;7.97;1.20;;;18.60;99.90;;;;;;5044465;28;20413;-69
2023/08/10 10:26:00;;;;;;;4.05;1.20;;;18.60;99.90;;;;;;5045047;28;20094;-69
2023/08/10 10:28:29;;;;;;;5.78;1.30;;;18.60;99.90;;;;;;5050953;28;20529;-69
2023/08/10 10:30:59;;;;;;;8.38;1.92;;;18.70;99.90;;;;;;5032316;28;20037;-70
2023/08/10 10:33:25;;;;;;;8.93;1.70;;;18.80;99.90;;;;;;5047216;28;20049;-69
2023/08/10 10:36:10;;;;;;;4.82;1.40;;;18.80;99.90;;;;;;5051837;28;20044;-69
2023/08/10 10:38:39;;;;;;;8.00;2.22;;;18.70;99.90;;;;;;5051578;28;20048;-70
2023/08/10 10:41:09;;;;;;;7.05;1.42;;;18.80;99.90;;;;;;5043196;28;20471;-69
2023/08/10 10:43:35;;;;;;;8.38;1.10;;;18.80;99.90;;;;;;5043127;28;20049;-69
2023/08/10 10:46:00;;;;;;;4.60;1.15;;;18.90;99.90;;;;;;5051687;28;20045;-70
2023/08/10 10:48:36;;;;;;;4.63;1.42;;;18.90;99.90;;;;;;5051734;28;20400;-69
2023/08/10 10:51:05;;;;;;;4.75;1.58;;;18.90;99.90;;;;;;5037165;28;20094;-70
2023/08/10 10:53:33;;;;;;;6.97;1.13;;;19.00;99.90;;;;;;5051646;28;20049;-70
2023/08/10 10:56:00;;;;;;;5.93;1.10;;;19.00;99.90;;;;;;5051129;28;20043;-70
2023/08/10 10:58:30;;;;;;;8.48;1.33;;;19.00;99.90;;;;;;5051594;28;20056;-70
2023/08/10 11:00:56;;;;;;;5.40;1.30;;;19.10;99.90;;;;;;5050100;28;20060;-74
2023/08/10 11:03:26;;;;;;;7.88;1.58;;;19.00;99.90;;;;;;5043554;28;20041;-70
2023/08/10 11:05:52;;;;;;;7.75;1.88;;;19.00;99.90;;;;;;5046737;28;20500;-73
2023/08/10 11:08:18;;;;;;;4.80;1.60;;;19.10;99.90;;;;;;5045657;28;20048;-74
2023/08/10 11:10:44;;;;;;;8.70;1.48;;;19.10;99.90;;;;;;5051124;28;20171;-70
2023/08/10 11:13:10;;;;;;;6.70;2.05;;;19.20;99.90;;;;;;5045321;28;20051;-70
2023/08/10 11:15:39;;;;;;;7.45;1.60;;;19.10;99.90;;;;;;5044990;28;20476;-69
2023/08/10 11:18:11;;;;;;;6.72;1.55;;;19.20;99.90;;;;;;5051257;28;20114;-74
2023/08/10 11:20:43;;;;;;;7.22;1.70;;;19.30;99.90;;;;;;5042400;28;20041;-71
2023/08/10 11:23:09;;;;;;;6.50;2.40;;;19.30;99.90;;;;;;5051466;28;20037;-73
2023/08/10 11:25:34;;;;;;;6.53;1.23;;;19.30;99.90;;;;;;5050756;28;20510;-73
2023/08/10 11:28:00;;;;;;;6.25;1.42;;;19.20;99.90;;;;;;5051020;28;20052;-70
2023/08/10 11:30:26;;;;;;;7.28;1.92;;;19.30;99.90;;;;;;5050891;28;20102;-73
2023/08/10 11:32:53;;;;;;;5.55;1.40;;;19.30;99.90;;;;;;5050564;28;20048;-73
2023/08/10 11:35:24;;;;;;;4.32;1.50;;;19.30;99.90;;;;;;5048892;28;20045;-73
2023/08/10 11:37:50;;;;;;;6.25;1.80;;;19.30;99.90;;;;;;5042285;28;20055;-69
2023/08/10 11:40:18;;;;;;;8.18;2.03;;;19.40;99.90;;;;;;5049267;28;20463;-69
2023/08/10 11:42:48;;;;;;;6.05;1.58;;;19.40;99.90;;;;;;5050593;28;20479;-71
2023/08/10 11:45:23;;;;;;;6.50;1.60;;;19.40;99.90;;;;;;5049419;28;20492;-69
2023/08/10 11:47:51;;;;;;;5.75;1.83;;;19.40;99.90;;;;;;5049208;28;20067;-70
2023/08/10 11:50:19;;;;;;;6.10;1.77;;;19.40;99.90;;;;;;5050613;28;20041;-70
2023/08/10 11:52:45;;;;;;;8.85;1.65;;;19.50;99.90;;;;;;5049256;28;20053;-69
2023/08/10 11:55:14;;;;;;;7.38;1.55;;;19.60;99.90;;;;;;5050377;28;20538;-71
2023/08/10 11:57:42;;;;;;;5.18;1.50;;;19.70;99.90;;;;;;5042093;28;20088;-69
2023/08/10 12:00:34;;;;;;;5.00;1.80;;;19.80;99.90;;;;;;5041425;28;20049;-70
2023/08/10 12:03:11;;;;;;;5.75;1.35;;;19.80;99.90;;;;;;5041389;28;20092;-70
2023/08/10 12:05:37;;;;;;;8.98;1.60;;;19.80;99.90;;;;;;5042339;28;20038;-72
2023/08/10 12:08:13;;;;;;;6.43;1.15;;;19.80;99.90;;;;;;5046493;28;20052;-70
2023/08/10 12:10:43;;;;;;;4.10;1.27;;;19.80;99.90;;;;;;5048015;28;20056;-72
2023/08/10 12:13:13;;;;;;;9.30;1.73;;;19.90;99.90;;;;;;5049890;28;20519;-74
2023/08/10 12:15:50;;;;;;;7.45;1.50;;;19.90;99.90;;;;;;5048318;28;20076;-72
2023/08/10 12:18:21;;;;;;;11.13;1.45;;;19.90;99.90;;;;;;5044625;28;20083;-72
2023/08/10 12:20:49;;;;;;;6.55;1.40;;;19.90;99.90;;;;;;5041450;28;20443;-71
2023/08/10 12:23:15;;;;;;;6.88;1.90;;;19.90;99.90;;;;;;5047359;28;20090;-68
2023/08/10 12:25:44;;;;;;;4.50;1.83;;;19.90;99.90;;;;;;5049958;28;20049;-72
2023/08/10 12:28:11;;;;;;;4.53;1.88;;;19.90;99.90;;;;;;5045971;28;20163;-67
2023/08/10 12:30:37;;;;;;;6.88;2.10;;;19.80;99.90;;;;;;5041931;28;20045;-67
2023/08/10 12:33:04;;;;;;;7.75;2.35;;;19.80;99.90;;;;;;5048045;28;20049;-68
2023/08/10 12:35:31;;;;;;;7.53;1.80;;;19.80;99.90;;;;;;5030132;28;20041;-71
2023/08/10 12:37:56;;;;;;;8.27;3.15;;;19.80;99.90;;;;;;5045161;28;20572;-68
2023/08/10 12:40:22;;;;;;;7.55;2.60;;;19.80;99.90;;;;;;5045563;28;20052;-69
2023/08/10 12:42:48;;;;;;;13.45;2.55;;;19.80;99.90;;;;;;5049258;28;20045;-68
2023/08/10 12:45:14;;;;;;;8.82;2.10;;;19.80;99.90;;;;;;5049469;28;20109;-68